sensor_id;sensor_type;location;lat;lon;timestamp;P1;durP1;ratioP1;P2;durP2;ratioP2
5295;SDS011;2670;42.720;23.336;2024-01-06T00:01:13;106.10;;;55.40;;
5295;SDS011;2670;42.720;23.336;2024-01-06T00:03:41;108.50;;;52.53;;
5295;SDS011;2670;42.720;23.336;2024-01-06T00:06:07;103.10;;;53.03;;
5295;SDS011;2670;42.720;23.336;2024-01-06T00:08:37;101.30;;;53.60;;
5295;SDS011;2670;42.720;23.336;2024-01-06T00:11:03;139.00;;;62.17;;
5295;SDS011;2670;42.720;23.336;2024-01-06T00:13:30;139.03;;;61.33;;
5295;SDS011;2670;42.720;23.336;2024-01-06T00:15:56;124.40;;;57.13;;
5295;SDS011;2670;42.720;23.336;2024-01-06T00:18:23;120.73;;;57.20;;
5295;SDS011;2670;42.720;23.336;2024-01-06T00:20:51;131.23;;;60.07;;
5295;SDS011;2670;42.720;23.336;2024-01-06T00:23:18;132.23;;;63.90;;
5295;SDS011;2670;42.720;23.336;2024-01-06T00:25:44;132.63;;;57.13;;
5295;SDS011;2670;42.720;23.336;2024-01-06T00:28:10;100.27;;;50.27;;
5295;SDS011;2670;42.720;23.336;2024-01-06T00:30:37;109.07;;;47.80;;
5295;SDS011;2670;42.720;23.336;2024-01-06T00:33:04;89.77;;;44.23;;
5295;SDS011;2670;42.720;23.336;2024-01-06T00:35:30;82.40;;;40.30;;
5295;SDS011;2670;42.720;23.336;2024-01-06T00:37:58;91.93;;;44.80;;
5295;SDS011;2670;42.720;23.336;2024-01-06T00:40:25;76.73;;;37.77;;
5295;SDS011;2670;42.720;23.336;2024-01-06T00:42:51;82.07;;;41.03;;
5295;SDS011;2670;42.720;23.336;2024-01-06T00:45:18;89.70;;;39.60;;
5295;SDS011;2670;42.720;23.336;2024-01-06T00:47:44;93.20;;;41.70;;
5295;SDS011;2670;42.720;23.336;2024-01-06T00:50:11;113.37;;;51.33;;
5295;SDS011;2670;42.720;23.336;2024-01-06T00:52:38;122.40;;;50.60;;
5295;SDS011;2670;42.720;23.336;2024-01-06T00:55:06;105.33;;;49.10;;
5295;SDS011;2670;42.720;23.336;2024-01-06T00:57:32;105.70;;;47.20;;
5295;SDS011;2670;42.720;23.336;2024-01-06T00:59:59;103.77;;;45.63;;
5295;SDS011;2670;42.720;23.336;2024-01-06T01:02:25;99.60;;;42.97;;
5295;SDS011;2670;42.720;23.336;2024-01-06T01:04:52;91.30;;;40.07;;
5295;SDS011;2670;42.720;23.336;2024-01-06T01:07:18;80.47;;;41.73;;
5295;SDS011;2670;42.720;23.336;2024-01-06T01:09:45;98.53;;;41.57;;
5295;SDS011;2670;42.720;23.336;2024-01-06T01:12:13;82.73;;;40.70;;
5295;SDS011;2670;42.720;23.336;2024-01-06T01:14:39;79.20;;;39.07;;
5295;SDS011;2670;42.720;23.336;2024-01-06T01:17:05;88.30;;;39.27;;
5295;SDS011;2670;42.720;23.336;2024-01-06T01:19:32;71.07;;;37.20;;
5295;SDS011;2670;42.720;23.336;2024-01-06T01:21:58;73.40;;;38.27;;
5295;SDS011;2670;42.720;23.336;2024-01-06T01:24:25;69.50;;;36.77;;
5295;SDS011;2670;42.720;23.336;2024-01-06T01:26:52;79.23;;;39.77;;
5295;SDS011;2670;42.720;23.336;2024-01-06T01:29:20;80.87;;;38.80;;
5295;SDS011;2670;42.720;23.336;2024-01-06T01:31:46;77.70;;;38.40;;
5295;SDS011;2670;42.720;23.336;2024-01-06T01:34:13;74.83;;;38.53;;
5295;SDS011;2670;42.720;23.336;2024-01-06T01:36:39;76.70;;;38.30;;
5295;SDS011;2670;42.720;23.336;2024-01-06T01:39:06;71.37;;;37.47;;
5295;SDS011;2670;42.720;23.336;2024-01-06T01:41:32;70.00;;;37.00;;
5295;SDS011;2670;42.720;23.336;2024-01-06T01:43:59;63.97;;;35.30;;
5295;SDS011;2670;42.720;23.336;2024-01-06T01:46:27;67.90;;;35.80;;
5295;SDS011;2670;42.720;23.336;2024-01-06T01:48:53;69.37;;;35.37;;
5295;SDS011;2670;42.720;23.336;2024-01-06T01:51:20;74.13;;;38.83;;
5295;SDS011;2670;42.720;23.336;2024-01-06T01:53:47;89.53;;;41.30;;
5295;SDS011;2670;42.720;23.336;2024-01-06T01:56:13;87.83;;;44.23;;
5295;SDS011;2670;42.720;23.336;2024-01-06T01:58:40;77.37;;;40.67;;
5295;SDS011;2670;42.720;23.336;2024-01-06T02:01:06;75.20;;;41.63;;
5295;SDS011;2670;42.720;23.336;2024-01-06T02:03:34;87.50;;;43.63;;
5295;SDS011;2670;42.720;23.336;2024-01-06T02:06:01;90.97;;;43.40;;
5295;SDS011;2670;42.720;23.336;2024-01-06T02:08:27;82.87;;;40.73;;
5295;SDS011;2670;42.720;23.336;2024-01-06T02:10:54;82.17;;;40.40;;
5295;SDS011;2670;42.720;23.336;2024-01-06T02:13:21;79.70;;;42.30;;
5295;SDS011;2670;42.720;23.336;2024-01-06T02:15:47;79.20;;;42.20;;
5295;SDS011;2670;42.720;23.336;2024-01-06T02:18:14;82.70;;;41.80;;
5295;SDS011;2670;42.720;23.336;2024-01-06T02:20:42;81.20;;;42.60;;
5295;SDS011;2670;42.720;23.336;2024-01-06T02:23:10;90.93;;;45.70;;
5295;SDS011;2670;42.720;23.336;2024-01-06T02:25:37;89.37;;;44.17;;
5295;SDS011;2670;42.720;23.336;2024-01-06T02:28:04;87.87;;;44.47;;
5295;SDS011;2670;42.720;23.336;2024-01-06T02:30:30;91.37;;;48.50;;
5295;SDS011;2670;42.720;23.336;2024-01-06T02:32:56;89.47;;;45.87;;
5295;SDS011;2670;42.720;23.336;2024-01-06T02:35:23;86.10;;;45.10;;
5295;SDS011;2670;42.720;23.336;2024-01-06T02:37:49;85.73;;;44.00;;
5295;SDS011;2670;42.720;23.336;2024-01-06T02:40:17;93.40;;;47.77;;
5295;SDS011;2670;42.720;23.336;2024-01-06T02:42:43;88.13;;;45.60;;
5295;SDS011;2670;42.720;23.336;2024-01-06T02:45:10;88.00;;;43.13;;
5295;SDS011;2670;42.720;23.336;2024-01-06T02:47:36;84.23;;;45.43;;
5295;SDS011;2670;42.720;23.336;2024-01-06T02:50:03;89.90;;;45.83;;
5295;SDS011;2670;42.720;23.336;2024-01-06T02:52:30;88.03;;;44.50;;
5295;SDS011;2670;42.720;23.336;2024-01-06T02:54:56;95.37;;;43.33;;
5295;SDS011;2670;42.720;23.336;2024-01-06T02:57:24;84.40;;;40.87;;
5295;SDS011;2670;42.720;23.336;2024-01-06T02:59:51;74.53;;;40.77;;
5295;SDS011;2670;42.720;23.336;2024-01-06T03:02:17;102.57;;;45.97;;
5295;SDS011;2670;42.720;23.336;2024-01-06T03:04:43;92.27;;;46.17;;
5295;SDS011;2670;42.720;23.336;2024-01-06T03:07:10;91.97;;;46.23;;
5295;SDS011;2670;42.720;23.336;2024-01-06T03:09:36;103.23;;;49.80;;
5295;SDS011;2670;42.720;23.336;2024-01-06T03:12:04;102.57;;;47.70;;
5295;SDS011;2670;42.720;23.336;2024-01-06T03:14:32;98.20;;;49.77;;
5295;SDS011;2670;42.720;23.336;2024-01-06T03:16:58;97.30;;;50.87;;
5295;SDS011;2670;42.720;23.336;2024-01-06T03:19:25;98.70;;;50.03;;
5295;SDS011;2670;42.720;23.336;2024-01-06T03:21:52;100.80;;;48.10;;
5295;SDS011;2670;42.720;23.336;2024-01-06T03:24:19;94.53;;;47.93;;
5295;SDS011;2670;42.720;23.336;2024-01-06T03:26:45;93.40;;;48.93;;
5295;SDS011;2670;42.720;23.336;2024-01-06T03:29:12;108.67;;;50.90;;
5295;SDS011;2670;42.720;23.336;2024-01-06T03:31:42;105.70;;;51.80;;
5295;SDS011;2670;42.720;23.336;2024-01-06T03:34:09;100.70;;;50.30;;
5295;SDS011;2670;42.720;23.336;2024-01-06T03:36:36;96.20;;;48.63;;
5295;SDS011;2670;42.720;23.336;2024-01-06T03:39:02;99.63;;;53.27;;
5295;SDS011;2670;42.720;23.336;2024-01-06T03:41:29;94.83;;;51.07;;
5295;SDS011;2670;42.720;23.336;2024-01-06T03:43:55;101.67;;;51.90;;
5295;SDS011;2670;42.720;23.336;2024-01-06T03:46:21;95.47;;;51.43;;
5295;SDS011;2670;42.720;23.336;2024-01-06T03:48:49;97.43;;;51.50;;
5295;SDS011;2670;42.720;23.336;2024-01-06T03:51:16;90.10;;;48.90;;
5295;SDS011;2670;42.720;23.336;2024-01-06T03:53:42;101.73;;;51.10;;
5295;SDS011;2670;42.720;23.336;2024-01-06T03:56:09;113.00;;;53.17;;
5295;SDS011;2670;42.720;23.336;2024-01-06T03:58:35;104.97;;;52.63;;
5295;SDS011;2670;42.720;23.336;2024-01-06T04:01:02;110.97;;;55.50;;
5295;SDS011;2670;42.720;23.336;2024-01-06T04:03:28;124.83;;;65.40;;
5295;SDS011;2670;42.720;23.336;2024-01-06T04:05:56;118.80;;;64.77;;
5295;SDS011;2670;42.720;23.336;2024-01-06T04:08:23;128.27;;;63.60;;
5295;SDS011;2670;42.720;23.336;2024-01-06T04:10:49;127.97;;;63.83;;
5295;SDS011;2670;42.720;23.336;2024-01-06T04:13:16;136.70;;;63.97;;
5295;SDS011;2670;42.720;23.336;2024-01-06T04:15:42;121.87;;;63.33;;
5295;SDS011;2670;42.720;23.336;2024-01-06T04:18:08;132.77;;;66.70;;
5295;SDS011;2670;42.720;23.336;2024-01-06T04:20:35;136.77;;;66.93;;
5295;SDS011;2670;42.720;23.336;2024-01-06T04:23:03;129.40;;;68.73;;
5295;SDS011;2670;42.720;23.336;2024-01-06T04:25:29;149.63;;;76.57;;
5295;SDS011;2670;42.720;23.336;2024-01-06T04:27:56;138.90;;;70.60;;
5295;SDS011;2670;42.720;23.336;2024-01-06T04:30:22;134.13;;;72.90;;
5295;SDS011;2670;42.720;23.336;2024-01-06T04:32:50;135.03;;;71.27;;
5295;SDS011;2670;42.720;23.336;2024-01-06T04:35:16;129.93;;;71.67;;
5295;SDS011;2670;42.720;23.336;2024-01-06T04:37:43;127.63;;;69.30;;
5295;SDS011;2670;42.720;23.336;2024-01-06T04:40:11;123.20;;;61.03;;
5295;SDS011;2670;42.720;23.336;2024-01-06T04:42:38;121.60;;;59.70;;
5295;SDS011;2670;42.720;23.336;2024-01-06T04:45:05;120.70;;;59.00;;
5295;SDS011;2670;42.720;23.336;2024-01-06T04:47:31;102.33;;;55.50;;
5295;SDS011;2670;42.720;23.336;2024-01-06T04:49:57;108.40;;;53.00;;
5295;SDS011;2670;42.720;23.336;2024-01-06T04:52:24;79.60;;;44.10;;
5295;SDS011;2670;42.720;23.336;2024-01-06T04:54:50;92.47;;;44.07;;
5295;SDS011;2670;42.720;23.336;2024-01-06T04:57:18;83.10;;;39.30;;
5295;SDS011;2670;42.720;23.336;2024-01-06T04:59:45;76.27;;;39.50;;
5295;SDS011;2670;42.720;23.336;2024-01-06T05:02:12;81.53;;;42.23;;
5295;SDS011;2670;42.720;23.336;2024-01-06T05:04:38;93.50;;;47.03;;
5295;SDS011;2670;42.720;23.336;2024-01-06T05:07:05;76.73;;;40.00;;
5295;SDS011;2670;42.720;23.336;2024-01-06T05:09:31;79.17;;;40.43;;
5295;SDS011;2670;42.720;23.336;2024-01-06T05:11:58;74.37;;;41.53;;
5295;SDS011;2670;42.720;23.336;2024-01-06T05:14:26;69.43;;;38.50;;
5295;SDS011;2670;42.720;23.336;2024-01-06T05:16:52;79.63;;;40.33;;
5295;SDS011;2670;42.720;23.336;2024-01-06T05:19:18;86.83;;;42.80;;
5295;SDS011;2670;42.720;23.336;2024-01-06T05:21:46;71.90;;;39.27;;
5295;SDS011;2670;42.720;23.336;2024-01-06T05:24:13;74.97;;;39.40;;
5295;SDS011;2670;42.720;23.336;2024-01-06T05:26:39;78.93;;;38.80;;
5295;SDS011;2670;42.720;23.336;2024-01-06T05:29:06;83.03;;;38.20;;
5295;SDS011;2670;42.720;23.336;2024-01-06T05:31:34;68.20;;;36.90;;
5295;SDS011;2670;42.720;23.336;2024-01-06T05:34:00;77.80;;;39.17;;
5295;SDS011;2670;42.720;23.336;2024-01-06T05:36:27;73.20;;;38.67;;
5295;SDS011;2670;42.720;23.336;2024-01-06T05:38:53;77.57;;;40.27;;
5295;SDS011;2670;42.720;23.336;2024-01-06T05:41:19;70.00;;;38.60;;
5295;SDS011;2670;42.720;23.336;2024-01-06T05:43:46;74.53;;;38.60;;
5295;SDS011;2670;42.720;23.336;2024-01-06T05:46:18;77.67;;;38.90;;
5295;SDS011;2670;42.720;23.336;2024-01-06T05:48:47;72.97;;;40.07;;
5295;SDS011;2670;42.720;23.336;2024-01-06T05:51:13;84.83;;;43.43;;
5295;SDS011;2670;42.720;23.336;2024-01-06T05:53:40;95.53;;;45.70;;
5295;SDS011;2670;42.720;23.336;2024-01-06T05:56:07;88.30;;;47.60;;
5295;SDS011;2670;42.720;23.336;2024-01-06T05:58:34;90.43;;;48.27;;
5295;SDS011;2670;42.720;23.336;2024-01-06T06:01:00;94.10;;;48.43;;
5295;SDS011;2670;42.720;23.336;2024-01-06T06:03:27;98.10;;;50.07;;
5295;SDS011;2670;42.720;23.336;2024-01-06T06:05:54;104.27;;;53.53;;
5295;SDS011;2670;42.720;23.336;2024-01-06T06:08:21;140.97;;;63.07;;
5295;SDS011;2670;42.720;23.336;2024-01-06T06:10:47;156.27;;;75.60;;
5295;SDS011;2670;42.720;23.336;2024-01-06T06:13:26;140.80;;;71.10;;
5295;SDS011;2670;42.720;23.336;2024-01-06T06:15:52;125.70;;;63.93;;
5295;SDS011;2670;42.720;23.336;2024-01-06T06:18:19;119.30;;;61.00;;
5295;SDS011;2670;42.720;23.336;2024-01-06T06:20:46;112.43;;;61.97;;
5295;SDS011;2670;42.720;23.336;2024-01-06T06:23:14;130.00;;;65.93;;
5295;SDS011;2670;42.720;23.336;2024-01-06T06:25:40;112.03;;;61.27;;
5295;SDS011;2670;42.720;23.336;2024-01-06T06:28:07;116.13;;;60.40;;
5295;SDS011;2670;42.720;23.336;2024-01-06T06:30:34;115.10;;;59.97;;
5295;SDS011;2670;42.720;23.336;2024-01-06T06:33:00;123.97;;;60.43;;
5295;SDS011;2670;42.720;23.336;2024-01-06T06:35:27;130.23;;;73.40;;
5295;SDS011;2670;42.720;23.336;2024-01-06T06:37:53;127.73;;;66.37;;
5295;SDS011;2670;42.720;23.336;2024-01-06T06:40:21;122.27;;;64.07;;
5295;SDS011;2670;42.720;23.336;2024-01-06T06:42:47;126.87;;;66.77;;
5295;SDS011;2670;42.720;23.336;2024-01-06T06:45:17;139.37;;;71.30;;
5295;SDS011;2670;42.720;23.336;2024-01-06T06:47:47;112.27;;;59.80;;
5295;SDS011;2670;42.720;23.336;2024-01-06T06:50:14;122.97;;;63.07;;
5295;SDS011;2670;42.720;23.336;2024-01-06T06:52:40;125.17;;;63.87;;
5295;SDS011;2670;42.720;23.336;2024-01-06T06:55:07;125.93;;;68.67;;
5295;SDS011;2670;42.720;23.336;2024-01-06T06:57:36;116.63;;;62.63;;
5295;SDS011;2670;42.720;23.336;2024-01-06T07:00:02;139.63;;;68.67;;
5295;SDS011;2670;42.720;23.336;2024-01-06T07:02:29;154.00;;;70.87;;
5295;SDS011;2670;42.720;23.336;2024-01-06T07:04:55;131.07;;;68.00;;
5295;SDS011;2670;42.720;23.336;2024-01-06T07:07:22;130.60;;;64.93;;
5295;SDS011;2670;42.720;23.336;2024-01-06T07:09:48;131.63;;;66.70;;
5295;SDS011;2670;42.720;23.336;2024-01-06T07:12:15;122.00;;;63.03;;
5295;SDS011;2670;42.720;23.336;2024-01-06T07:14:42;121.00;;;66.87;;
5295;SDS011;2670;42.720;23.336;2024-01-06T07:17:09;127.27;;;65.00;;
5295;SDS011;2670;42.720;23.336;2024-01-06T07:19:36;124.00;;;64.90;;
5295;SDS011;2670;42.720;23.336;2024-01-06T07:22:03;146.67;;;71.20;;
5295;SDS011;2670;42.720;23.336;2024-01-06T07:24:30;122.13;;;67.30;;
5295;SDS011;2670;42.720;23.336;2024-01-06T07:26:56;144.07;;;74.40;;
5295;SDS011;2670;42.720;23.336;2024-01-06T07:29:23;144.67;;;74.40;;
5295;SDS011;2670;42.720;23.336;2024-01-06T07:31:51;129.07;;;66.27;;
5295;SDS011;2670;42.720;23.336;2024-01-06T07:34:17;115.20;;;61.03;;
5295;SDS011;2670;42.720;23.336;2024-01-06T07:36:43;111.10;;;59.47;;
5295;SDS011;2670;42.720;23.336;2024-01-06T07:39:10;102.10;;;53.73;;
5295;SDS011;2670;42.720;23.336;2024-01-06T07:41:36;100.20;;;53.50;;
5295;SDS011;2670;42.720;23.336;2024-01-06T07:44:03;93.27;;;47.33;;
5295;SDS011;2670;42.720;23.336;2024-01-06T07:46:30;90.73;;;44.30;;
5295;SDS011;2670;42.720;23.336;2024-01-06T07:48:58;82.07;;;40.73;;
5295;SDS011;2670;42.720;23.336;2024-01-06T07:51:25;82.97;;;45.50;;
5295;SDS011;2670;42.720;23.336;2024-01-06T07:53:51;86.47;;;44.93;;
5295;SDS011;2670;42.720;23.336;2024-01-06T07:56:17;96.97;;;48.23;;
5295;SDS011;2670;42.720;23.336;2024-01-06T07:58:44;83.07;;;42.23;;
5295;SDS011;2670;42.720;23.336;2024-01-06T08:01:10;80.20;;;44.90;;
5295;SDS011;2670;42.720;23.336;2024-01-06T08:03:38;88.67;;;47.20;;
5295;SDS011;2670;42.720;23.336;2024-01-06T08:06:06;77.10;;;38.63;;
5295;SDS011;2670;42.720;23.336;2024-01-06T08:08:32;83.87;;;45.97;;
5295;SDS011;2670;42.720;23.336;2024-01-06T08:10:59;72.50;;;41.03;;
5295;SDS011;2670;42.720;23.336;2024-01-06T08:13:25;78.50;;;41.17;;
5295;SDS011;2670;42.720;23.336;2024-01-06T08:15:52;91.97;;;43.57;;
5295;SDS011;2670;42.720;23.336;2024-01-06T08:18:18;93.03;;;45.37;;
5295;SDS011;2670;42.720;23.336;2024-01-06T08:20:46;79.43;;;42.70;;
5295;SDS011;2670;42.720;23.336;2024-01-06T08:23:14;81.63;;;44.80;;
5295;SDS011;2670;42.720;23.336;2024-01-06T08:25:41;95.20;;;48.53;;
5295;SDS011;2670;42.720;23.336;2024-01-06T08:28:08;103.57;;;52.97;;
5295;SDS011;2670;42.720;23.336;2024-01-06T08:30:34;93.73;;;44.93;;
5295;SDS011;2670;42.720;23.336;2024-01-06T08:33:00;81.47;;;38.87;;
5295;SDS011;2670;42.720;23.336;2024-01-06T08:35:27;56.67;;;31.47;;
5295;SDS011;2670;42.720;23.336;2024-01-06T08:37:53;67.03;;;33.60;;
5295;SDS011;2670;42.720;23.336;2024-01-06T08:40:21;52.70;;;30.70;;
5295;SDS011;2670;42.720;23.336;2024-01-06T08:42:48;57.87;;;29.03;;
5295;SDS011;2670;42.720;23.336;2024-01-06T08:45:14;69.53;;;34.13;;
5295;SDS011;2670;42.720;23.336;2024-01-06T08:47:41;53.70;;;27.70;;
5295;SDS011;2670;42.720;23.336;2024-01-06T08:50:07;54.00;;;27.73;;
5295;SDS011;2670;42.720;23.336;2024-01-06T08:52:34;60.70;;;30.30;;
5295;SDS011;2670;42.720;23.336;2024-01-06T08:54:59;52.90;;;29.27;;
5295;SDS011;2670;42.720;23.336;2024-01-06T08:57:27;46.70;;;23.83;;
5295;SDS011;2670;42.720;23.336;2024-01-06T08:59:53;49.83;;;24.57;;
5295;SDS011;2670;42.720;23.336;2024-01-06T09:02:20;47.30;;;25.60;;
5295;SDS011;2670;42.720;23.336;2024-01-06T09:04:46;57.30;;;25.17;;
5295;SDS011;2670;42.720;23.336;2024-01-06T09:07:13;46.20;;;24.70;;
5295;SDS011;2670;42.720;23.336;2024-01-06T09:09:39;47.70;;;25.43;;
5295;SDS011;2670;42.720;23.336;2024-01-06T09:12:06;38.83;;;21.63;;
5295;SDS011;2670;42.720;23.336;2024-01-06T09:14:35;45.43;;;24.87;;
5295;SDS011;2670;42.720;23.336;2024-01-06T09:17:01;44.90;;;24.90;;
5295;SDS011;2670;42.720;23.336;2024-01-06T09:19:29;48.67;;;26.30;;
5295;SDS011;2670;42.720;23.336;2024-01-06T09:21:55;53.40;;;27.60;;
5295;SDS011;2670;42.720;23.336;2024-01-06T09:24:22;47.07;;;27.77;;
5295;SDS011;2670;42.720;23.336;2024-01-06T09:26:49;51.40;;;27.17;;
5295;SDS011;2670;42.720;23.336;2024-01-06T09:29:16;50.57;;;27.17;;
5295;SDS011;2670;42.720;23.336;2024-01-06T09:31:44;47.77;;;25.57;;
5295;SDS011;2670;42.720;23.336;2024-01-06T09:34:11;47.80;;;24.70;;
5295;SDS011;2670;42.720;23.336;2024-01-06T09:36:37;43.03;;;23.70;;
5295;SDS011;2670;42.720;23.336;2024-01-06T09:39:04;44.97;;;23.97;;
5295;SDS011;2670;42.720;23.336;2024-01-06T09:41:30;35.57;;;21.30;;
5295;SDS011;2670;42.720;23.336;2024-01-06T09:43:57;39.57;;;21.37;;
5295;SDS011;2670;42.720;23.336;2024-01-06T09:46:24;41.93;;;22.80;;
5295;SDS011;2670;42.720;23.336;2024-01-06T09:48:53;45.43;;;24.47;;
5295;SDS011;2670;42.720;23.336;2024-01-06T09:51:20;50.57;;;24.83;;
5295;SDS011;2670;42.720;23.336;2024-01-06T09:53:47;45.33;;;20.70;;
5295;SDS011;2670;42.720;23.336;2024-01-06T09:56:14;35.03;;;19.80;;
5295;SDS011;2670;42.720;23.336;2024-01-06T09:58:41;30.40;;;18.60;;
5295;SDS011;2670;42.720;23.336;2024-01-06T10:01:08;30.07;;;16.87;;
5295;SDS011;2670;42.720;23.336;2024-01-06T10:03:34;28.10;;;16.73;;
5295;SDS011;2670;42.720;23.336;2024-01-06T10:06:03;52.60;;;33.50;;
5295;SDS011;2670;42.720;23.336;2024-01-06T10:08:30;35.17;;;19.30;;
5295;SDS011;2670;42.720;23.336;2024-01-06T10:10:57;29.83;;;17.37;;
5295;SDS011;2670;42.720;23.336;2024-01-06T10:13:24;27.60;;;15.67;;
5295;SDS011;2670;42.720;23.336;2024-01-06T10:15:51;35.13;;;16.50;;
5295;SDS011;2670;42.720;23.336;2024-01-06T10:18:24;26.43;;;12.50;;
5295;SDS011;2670;42.720;23.336;2024-01-06T10:20:55;22.03;;;13.20;;
5295;SDS011;2670;42.720;23.336;2024-01-06T10:23:23;34.07;;;14.77;;
5295;SDS011;2670;42.720;23.336;2024-01-06T10:25:51;31.13;;;17.20;;
5295;SDS011;2670;42.720;23.336;2024-01-06T10:28:17;36.33;;;16.53;;
5295;SDS011;2670;42.720;23.336;2024-01-06T10:30:44;34.93;;;17.60;;
5295;SDS011;2670;42.720;23.336;2024-01-06T10:33:10;33.93;;;17.63;;
5295;SDS011;2670;42.720;23.336;2024-01-06T10:35:38;39.90;;;17.20;;
5295;SDS011;2670;42.720;23.336;2024-01-06T10:38:05;34.90;;;17.80;;
5295;SDS011;2670;42.720;23.336;2024-01-06T10:40:34;36.90;;;16.10;;
5295;SDS011;2670;42.720;23.336;2024-01-06T10:43:00;38.27;;;16.03;;
5295;SDS011;2670;42.720;23.336;2024-01-06T10:45:28;25.03;;;14.20;;
5295;SDS011;2670;42.720;23.336;2024-01-06T10:47:54;23.60;;;14.03;;
5295;SDS011;2670;42.720;23.336;2024-01-06T10:50:21;29.30;;;15.30;;
5295;SDS011;2670;42.720;23.336;2024-01-06T10:52:48;35.30;;;15.93;;
5295;SDS011;2670;42.720;23.336;2024-01-06T10:55:15;28.37;;;15.83;;
5295;SDS011;2670;42.720;23.336;2024-01-06T10:57:44;27.93;;;13.40;;
5295;SDS011;2670;42.720;23.336;2024-01-06T11:00:11;27.30;;;15.00;;
5295;SDS011;2670;42.720;23.336;2024-01-06T11:02:38;35.93;;;15.87;;
5295;SDS011;2670;42.720;23.336;2024-01-06T11:05:05;30.07;;;16.57;;
5295;SDS011;2670;42.720;23.336;2024-01-06T11:07:33;37.93;;;15.53;;
5295;SDS011;2670;42.720;23.336;2024-01-06T11:10:02;28.77;;;16.67;;
5295;SDS011;2670;42.720;23.336;2024-01-06T11:12:30;33.57;;;16.63;;
5295;SDS011;2670;42.720;23.336;2024-01-06T11:14:58;31.87;;;15.60;;
5295;SDS011;2670;42.720;23.336;2024-01-06T11:20:10;36.43;;;13.67;;
5295;SDS011;2670;42.720;23.336;2024-01-06T11:22:37;30.83;;;13.57;;
5295;SDS011;2670;42.720;23.336;2024-01-06T11:25:05;31.43;;;14.30;;
5295;SDS011;2670;42.720;23.336;2024-01-06T11:27:32;20.80;;;12.50;;
5295;SDS011;2670;42.720;23.336;2024-01-06T11:30:01;55.57;;;13.97;;
5295;SDS011;2670;42.720;23.336;2024-01-06T11:32:30;21.17;;;12.57;;
5295;SDS011;2670;42.720;23.336;2024-01-06T11:35:04;27.33;;;12.10;;
5295;SDS011;2670;42.720;23.336;2024-01-06T11:37:34;20.13;;;11.03;;
5295;SDS011;2670;42.720;23.336;2024-01-06T11:40:02;18.67;;;10.73;;
5295;SDS011;2670;42.720;23.336;2024-01-06T11:42:31;16.20;;;8.77;;
5295;SDS011;2670;42.720;23.336;2024-01-06T11:45:02;19.33;;;10.83;;
5295;SDS011;2670;42.720;23.336;2024-01-06T11:47:30;19.27;;;10.83;;
5295;SDS011;2670;42.720;23.336;2024-01-06T11:49:57;19.27;;;10.30;;
5295;SDS011;2670;42.720;23.336;2024-01-06T11:52:24;26.33;;;11.00;;
5295;SDS011;2670;42.720;23.336;2024-01-06T11:54:52;27.60;;;16.20;;
5295;SDS011;2670;42.720;23.336;2024-01-06T11:57:18;19.53;;;10.60;;
5295;SDS011;2670;42.720;23.336;2024-01-06T11:59:45;17.90;;;9.10;;
5295;SDS011;2670;42.720;23.336;2024-01-06T12:02:12;19.47;;;8.10;;
5295;SDS011;2670;42.720;23.336;2024-01-06T12:04:39;23.87;;;14.10;;
5295;SDS011;2670;42.720;23.336;2024-01-06T12:07:07;19.17;;;9.47;;
5295;SDS011;2670;42.720;23.336;2024-01-06T12:09:33;11.93;;;7.70;;
5295;SDS011;2670;42.720;23.336;2024-01-06T12:12:01;23.10;;;10.73;;
5295;SDS011;2670;42.720;23.336;2024-01-06T12:14:27;18.80;;;9.93;;
5295;SDS011;2670;42.720;23.336;2024-01-06T12:16:54;23.60;;;11.43;;
5295;SDS011;2670;42.720;23.336;2024-01-06T12:19:24;19.53;;;10.67;;
5295;SDS011;2670;42.720;23.336;2024-01-06T12:21:50;23.60;;;12.07;;
5295;SDS011;2670;42.720;23.336;2024-01-06T12:24:17;30.63;;;9.30;;
5295;SDS011;2670;42.720;23.336;2024-01-06T12:26:45;22.53;;;9.30;;
5295;SDS011;2670;42.720;23.336;2024-01-06T12:29:12;17.63;;;10.47;;
5295;SDS011;2670;42.720;23.336;2024-01-06T12:31:38;19.50;;;9.63;;
5295;SDS011;2670;42.720;23.336;2024-01-06T12:34:05;19.47;;;10.57;;
5295;SDS011;2670;42.720;23.336;2024-01-06T12:36:33;27.60;;;14.90;;
5295;SDS011;2670;42.720;23.336;2024-01-06T12:39:00;26.80;;;14.27;;
5295;SDS011;2670;42.720;23.336;2024-01-06T12:41:27;31.83;;;13.97;;
5295;SDS011;2670;42.720;23.336;2024-01-06T12:43:54;20.37;;;12.23;;
5295;SDS011;2670;42.720;23.336;2024-01-06T12:46:20;22.50;;;11.00;;
5295;SDS011;2670;42.720;23.336;2024-01-06T12:48:46;20.30;;;11.23;;
5295;SDS011;2670;42.720;23.336;2024-01-06T12:51:13;29.23;;;13.27;;
5295;SDS011;2670;42.720;23.336;2024-01-06T12:53:41;35.50;;;12.43;;
5295;SDS011;2670;42.720;23.336;2024-01-06T12:56:07;19.83;;;11.80;;
5295;SDS011;2670;42.720;23.336;2024-01-06T12:58:34;19.00;;;12.23;;
5295;SDS011;2670;42.720;23.336;2024-01-06T13:01:00;23.00;;;12.30;;
5295;SDS011;2670;42.720;23.336;2024-01-06T13:03:28;23.07;;;12.50;;
5295;SDS011;2670;42.720;23.336;2024-01-06T13:05:54;23.20;;;12.00;;
5295;SDS011;2670;42.720;23.336;2024-01-06T13:08:20;28.67;;;13.10;;
5295;SDS011;2670;42.720;23.336;2024-01-06T13:10:48;20.93;;;13.13;;
5295;SDS011;2670;42.720;23.336;2024-01-06T13:13:15;21.27;;;12.80;;
5295;SDS011;2670;42.720;23.336;2024-01-06T13:15:41;25.13;;;12.70;;
5295;SDS011;2670;42.720;23.336;2024-01-06T13:18:08;20.63;;;11.70;;
5295;SDS011;2670;42.720;23.336;2024-01-06T13:20:35;25.30;;;11.80;;
5295;SDS011;2670;42.720;23.336;2024-01-06T13:23:02;28.57;;;12.97;;
5295;SDS011;2670;42.720;23.336;2024-01-06T13:25:31;20.90;;;13.30;;
5295;SDS011;2670;42.720;23.336;2024-01-06T13:27:59;30.37;;;12.90;;
5295;SDS011;2670;42.720;23.336;2024-01-06T13:30:26;26.43;;;12.37;;
5295;SDS011;2670;42.720;23.336;2024-01-06T13:32:52;36.73;;;14.80;;
5295;SDS011;2670;42.720;23.336;2024-01-06T13:35:19;25.80;;;13.70;;
5295;SDS011;2670;42.720;23.336;2024-01-06T13:37:45;29.17;;;13.83;;
5295;SDS011;2670;42.720;23.336;2024-01-06T13:40:13;25.33;;;13.77;;
5295;SDS011;2670;42.720;23.336;2024-01-06T13:42:39;31.20;;;14.60;;
5295;SDS011;2670;42.720;23.336;2024-01-06T13:45:08;25.90;;;14.10;;
5295;SDS011;2670;42.720;23.336;2024-01-06T13:47:34;20.50;;;12.43;;
5295;SDS011;2670;42.720;23.336;2024-01-06T13:50:01;30.90;;;16.53;;
5295;SDS011;2670;42.720;23.336;2024-01-06T13:52:27;29.63;;;15.30;;
5295;SDS011;2670;42.720;23.336;2024-01-06T13:54:54;21.63;;;11.40;;
5295;SDS011;2670;42.720;23.336;2024-01-06T13:57:20;25.63;;;13.17;;
5295;SDS011;2670;42.720;23.336;2024-01-06T13:59:46;26.70;;;14.23;;
5295;SDS011;2670;42.720;23.336;2024-01-06T14:02:14;32.83;;;12.43;;
5295;SDS011;2670;42.720;23.336;2024-01-06T14:04:41;25.17;;;12.27;;
5295;SDS011;2670;42.720;23.336;2024-01-06T14:07:07;22.40;;;13.23;;
5295;SDS011;2670;42.720;23.336;2024-01-06T14:09:35;22.03;;;13.03;;
5295;SDS011;2670;42.720;23.336;2024-01-06T14:12:01;23.33;;;12.57;;
5295;SDS011;2670;42.720;23.336;2024-01-06T14:14:31;23.83;;;13.43;;
5295;SDS011;2670;42.720;23.336;2024-01-06T14:16:57;23.63;;;13.97;;
5295;SDS011;2670;42.720;23.336;2024-01-06T14:19:25;24.40;;;13.37;;
5295;SDS011;2670;42.720;23.336;2024-01-06T14:21:51;34.40;;;16.57;;
5295;SDS011;2670;42.720;23.336;2024-01-06T14:24:18;33.60;;;15.27;;
5295;SDS011;2670;42.720;23.336;2024-01-06T14:26:48;51.30;;;25.27;;
5295;SDS011;2670;42.720;23.336;2024-01-06T14:29:15;39.03;;;21.37;;
5295;SDS011;2670;42.720;23.336;2024-01-06T14:31:41;35.97;;;18.50;;